sensor_id;sensor_type;location;lat;lon;timestamp;pressure;altitude;pressure_sealevel;temperature;humidity
27202;BME280;14717;46.924;15.474;2022-10-01T00:01:52;97590.91;;;14.30;100.00
27202;BME280;14717;46.924;15.474;2022-10-01T00:04:17;97585.50;;;14.25;100.00
27202;BME280;14717;46.924;15.474;2022-10-01T00:06:43;97588.09;;;14.22;100.00
27202;BME280;14717;46.924;15.474;2022-10-01T00:09:08;97602.47;;;14.24;100.00
27202;BME280;14717;46.924;15.474;2022-10-01T00:11:34;97599.84;;;14.19;100.00
27202;BME280;14717;46.924;15.474;2022-10-01T00:13:59;97596.91;;;14.24;100.00
27202;BME280;14717;46.924;15.474;2022-10-01T00:16:29;97598.75;;;14.28;100.00
27202;BME280;14717;46.924;15.474;2022-10-01T00:18:55;97596.47;;;14.30;100.00
27202;BME280;14717;46.924;15.474;2022-10-01T00:21:27;97598.75;;;14.28;100.00
27202;BME280;14717;46.924;15.474;2022-10-01T00:23:55;97603.97;;;14.30;100.00
27202;BME280;14717;46.924;15.474;2022-10-01T00:26:23;97607.09;;;14.28;100.00
27202;BME280;14717;46.924;15.474;2022-10-01T00:28:54;97603.28;;;14.24;100.00
27202;BME280;14717;46.924;15.474;2022-10-01T00:31:19;97600.34;;;14.21;100.00
27202;BME280;14717;46.924;15.474;2022-10-01T00:33:45;97602.31;;;14.20;100.00
27202;BME280;14717;46.924;15.474;2022-10-01T00:36:11;97593.34;;;14.23;100.00
27202;BME280;14717;46.924;15.474;2022-10-01T00:38:37;97592.84;;;14.21;100.00
27202;BME280;14717;46.924;15.474;2022-10-01T00:41:04;97597.56;;;14.21;100.00
27202;BME280;14717;46.924;15.474;2022-10-01T00:43:32;97597.56;;;14.21;100.00
27202;BME280;14717;46.924;15.474;2022-10-01T00:48:59;97599.53;;;14.20;100.00
27202;BME280;14717;46.924;15.474;2022-10-01T00:51:29;97595.47;;;14.26;100.00
27202;BME280;14717;46.924;15.474;2022-10-01T00:54:03;97589.72;;;14.23;100.00
27202;BME280;14717;46.924;15.474;2022-10-01T00:56:31;97590.88;;;14.22;100.00
27202;BME280;14717;46.924;15.474;2022-10-01T00:58:56;97595.47;;;14.26;100.00
27202;BME280;14717;46.924;15.474;2022-10-01T01:01:22;97589.53;;;14.19;100.00
27202;BME280;14717;46.924;15.474;2022-10-01T01:03:49;97578.28;;;14.24;100.00
27202;BME280;14717;46.924;15.474;2022-10-01T01:06:15;97582.72;;;14.25;100.00
27202;BME280;14717;46.924;15.474;2022-10-01T01:08:41;97572.56;;;14.29;100.00
27202;BME280;14717;46.924;15.474;2022-10-01T01:11:39;97581.91;;;14.33;100.00
27202;BME280;14717;46.924;15.474;2022-10-01T01:14:24;97558.69;;;14.38;100.00
27202;BME280;14717;46.924;15.474;2022-10-01T01:16:57;97549.84;;;14.27;100.00
27202;BME280;14717;46.924;15.474;2022-10-01T01:22:01;97555.91;;;14.29;100.00
27202;BME280;14717;46.924;15.474;2022-10-01T01:24:47;97543.81;;;14.25;100.00
27202;BME280;14717;46.924;15.474;2022-10-01T01:32:34;97534.50;;;14.21;100.00
27202;BME280;14717;46.924;15.474;2022-10-01T01:35:06;97531.34;;;14.14;100.00
27202;BME280;14717;46.924;15.474;2022-10-01T01:37:40;97533.00;;;14.15;100.00
27202;BME280;14717;46.924;15.474;2022-10-01T01:40:09;97527.31;;;14.29;100.00
27202;BME280;14717;46.924;15.474;2022-10-01T01:42:38;97543.66;;;14.30;100.00
27202;BME280;14717;46.924;15.474;2022-10-01T01:45:08;97546.09;;;14.23;100.00
27202;BME280;14717;46.924;15.474;2022-10-01T01:47:37;97541.19;;;14.20;100.00
27202;BME280;14717;46.924;15.474;2022-10-01T01:50:07;97537.44;;;14.25;100.00
27202;BME280;14717;46.924;15.474;2022-10-01T01:52:33;97540.56;;;14.40;100.00
27202;BME280;14717;46.924;15.474;2022-10-01T01:54:59;97522.94;;;14.53;100.00
27202;BME280;14717;46.924;15.474;2022-10-01T01:57:29;97532.72;;;14.59;100.00
27202;BME280;14717;46.924;15.474;2022-10-01T01:59:55;97533.41;;;14.56;100.00
27202;BME280;14717;46.924;15.474;2022-10-01T02:02:22;97530.25;;;14.49;100.00
27202;BME280;14717;46.924;15.474;2022-10-01T02:04:59;97526.19;;;14.38;100.00
27202;BME280;14717;46.924;15.474;2022-10-01T02:07:52;97515.38;;;14.37;100.00
27202;BME280;14717;46.924;15.474;2022-10-01T02:13:12;97525.84;;;14.40;100.00
27202;BME280;14717;46.924;15.474;2022-10-01T02:16:10;97529.44;;;14.32;100.00
27202;BME280;14717;46.924;15.474;2022-10-01T02:21:58;97531.75;;;14.47;100.00
27202;BME280;14717;46.924;15.474;2022-10-01T02:24:44;97541.84;;;14.34;100.00
27202;BME280;14717;46.924;15.474;2022-10-01T02:27:16;97541.22;;;14.46;100.00
27202;BME280;14717;46.924;15.474;2022-10-01T02:29:44;97540.91;;;14.47;100.00
27202;BME280;14717;46.924;15.474;2022-10-01T02:32:11;97545.47;;;14.43;100.00
27202;BME280;14717;46.924;15.474;2022-10-01T02:34:38;97557.72;;;14.34;100.00
27202;BME280;14717;46.924;15.474;2022-10-01T02:37:06;97549.69;;;14.32;100.00
27202;BME280;14717;46.924;15.474;2022-10-01T02:39:32;97550.03;;;14.31;100.00
27202;BME280;14717;46.924;15.474;2022-10-01T02:42:02;97550.34;;;14.29;100.00
27202;BME280;14717;46.924;15.474;2022-10-01T02:44:34;97539.91;;;14.26;100.00
27202;BME280;14717;46.924;15.474;2022-10-01T02:47:14;97548.41;;;14.30;100.00
27202;BME280;14717;46.924;15.474;2022-10-01T02:49:42;97554.44;;;14.32;100.00
27202;BME280;14717;46.924;15.474;2022-10-01T02:52:48;97555.91;;;14.29;100.00
27202;BME280;14717;46.924;15.474;2022-10-01T02:55:12;97558.69;;;14.38;100.00
27202;BME280;14717;46.924;15.474;2022-10-01T02:57:39;97552.47;;;14.32;100.00
27202;BME280;14717;46.924;15.474;2022-10-01T03:00:11;97558.34;;;14.31;100.00
27202;BME280;14717;46.924;15.474;2022-10-01T03:02:37;97565.91;;;14.39;100.00
27202;BME280;14717;46.924;15.474;2022-10-01T03:05:03;97563.94;;;14.47;100.00
27202;BME280;14717;46.924;15.474;2022-10-01T03:07:30;97562.16;;;14.43;100.00
27202;BME280;14717;46.924;15.474;2022-10-01T03:09:56;97572.78;;;14.49;100.00
27202;BME280;14717;46.924;15.474;2022-10-01T03:12:22;97562.16;;;14.60;100.00
27202;BME280;14717;46.924;15.474;2022-10-01T03:14:47;97567.56;;;14.65;100.00
27202;BME280;14717;46.924;15.474;2022-10-01T03:17:14;97553.19;;;14.63;100.00
27202;BME280;14717;46.924;15.474;2022-10-01T03:19:40;97560.19;;;14.52;100.00
27202;BME280;14717;46.924;15.474;2022-10-01T03:22:08;97556.94;;;14.58;100.00
27202;BME280;14717;46.924;15.474;2022-10-01T03:24:36;97559.72;;;14.58;100.00
27202;BME280;14717;46.924;15.474;2022-10-01T03:27:01;97558.25;;;14.61;100.00
27202;BME280;14717;46.924;15.474;2022-10-01T03:29:27;97562.16;;;14.60;100.00
27202;BME280;14717;46.924;15.474;2022-10-01T03:31:52;97570.19;;;14.61;100.00
27202;BME280;14717;46.924;15.474;2022-10-01T03:34:18;97573.94;;;14.57;100.00
27202;BME280;14717;46.924;15.474;2022-10-01T03:36:44;97582.09;;;14.45;100.00
27202;BME280;14717;46.924;15.474;2022-10-01T03:39:09;97573.28;;;14.43;100.00
27202;BME280;14717;46.924;15.474;2022-10-01T03:41:35;97573.44;;;14.55;100.00
27202;BME280;14717;46.924;15.474;2022-10-01T03:44:02;97562.81;;;14.57;100.00
27202;BME280;14717;46.924;15.474;2022-10-01T03:46:27;97568.88;;;14.59;100.00
27202;BME280;14717;46.924;15.474;2022-10-01T03:48:54;97562.34;;;14.63;100.00
27202;BME280;14717;46.924;15.474;2022-10-01T03:51:19;97564.16;;;14.68;100.00
27202;BME280;14717;46.924;15.474;2022-10-01T03:53:45;97559.88;;;14.70;100.00
27202;BME280;14717;46.924;15.474;2022-10-01T03:56:11;97562.81;;;14.74;100.00
27202;BME280;14717;46.924;15.474;2022-10-01T03:58:37;97558.59;;;14.59;100.00
27202;BME280;14717;46.924;15.474;2022-10-01T04:01:02;97563.47;;;14.54;100.00
27202;BME280;14717;46.924;15.474;2022-10-01T04:03:27;97563.97;;;14.56;100.00
27202;BME280;14717;46.924;15.474;2022-10-01T04:05:55;97562.66;;;14.62;100.00
27202;BME280;14717;46.924;15.474;2022-10-01T04:08:20;97561.53;;;14.63;100.00
27202;BME280;14717;46.924;15.474;2022-10-01T04:10:45;97569.72;;;14.59;100.00
27202;BME280;14717;46.924;15.474;2022-10-01T04:13:11;97567.09;;;14.63;100.00
27202;BME280;14717;46.924;15.474;2022-10-01T04:15:36;97559.41;;;14.60;100.00
27202;BME280;14717;46.924;15.474;2022-10-01T04:18:02;97564.47;;;14.58;100.00
27202;BME280;14717;46.924;15.474;2022-10-01T04:20:30;97571.31;;;14.52;100.00
27202;BME280;14717;46.924;15.474;2022-10-01T04:22:56;97568.69;;;14.47;100.00
27202;BME280;14717;46.924;15.474;2022-10-01T04:25:21;97567.72;;;14.43;100.00
27202;BME280;14717;46.924;15.474;2022-10-01T04:30:27;97562.81;;;14.48;100.00
27202;BME280;14717;46.924;15.474;2022-10-01T04:32:53;97555.94;;;14.46;100.00
27202;BME280;14717;46.924;15.474;2022-10-01T04:35:18;97553.66;;;14.48;100.00
27202;BME280;14717;46.924;15.474;2022-10-01T04:37:43;97556.75;;;14.47;100.00
27202;BME280;14717;46.924;15.474;2022-10-01T04:40:09;97566.91;;;14.51;100.00
27202;BME280;14717;46.924;15.474;2022-10-01T04:42:38;97556.59;;;14.43;100.00
27202;BME280;14717;46.924;15.474;2022-10-01T04:45:05;97549.84;;;14.19;100.00
27202;BME280;14717;46.924;15.474;2022-10-01T04:47:31;97546.72;;;14.12;100.00
27202;BME280;14717;46.924;15.474;2022-10-01T04:49:56;97538.88;;;14.22;100.00
27202;BME280;14717;46.924;15.474;2022-10-01T04:52:21;97541.19;;;14.29;100.00
27202;BME280;14717;46.924;15.474;2022-10-01T04:54:47;97547.72;;;14.33;100.00
27202;BME280;14717;46.924;15.474;2022-10-01T04:57:12;97571.44;;;14.30;100.00
27202;BME280;14717;46.924;15.474;2022-10-01T04:59:38;97559.53;;;14.38;100.00
27202;BME280;14717;46.924;15.474;2022-10-01T05:02:03;97565.44;;;14.45;100.00
27202;BME280;14717;46.924;15.474;2022-10-01T05:04:28;97560.66;;;14.46;100.00
27202;BME280;14717;46.924;15.474;2022-10-01T05:06:53;97563.13;;;14.47;100.00
27202;BME280;14717;46.924;15.474;2022-10-01T05:09:20;97558.88;;;14.41;100.00
27202;BME280;14717;46.924;15.474;2022-10-01T05:11:45;97576.38;;;14.33;100.00
27202;BME280;14717;46.924;15.474;2022-10-01T05:14:10;97566.72;;;14.39;100.00
27202;BME280;14717;46.924;15.474;2022-10-01T05:16:36;97576.53;;;14.45;100.00
27202;BME280;14717;46.924;15.474;2022-10-01T05:19:01;97572.63;;;14.46;100.00
27202;BME280;14717;46.924;15.474;2022-10-01T05:21:27;97587.19;;;14.51;100.00
27202;BME280;14717;46.924;15.474;2022-10-01T05:23:52;97588.63;;;14.49;100.00
27202;BME280;14717;46.924;15.474;2022-10-01T05:26:18;97588.16;;;14.55;100.00
27202;BME280;14717;46.924;15.474;2022-10-01T05:28:44;97596.63;;;14.42;100.00
27202;BME280;14717;46.924;15.474;2022-10-01T05:31:10;97589.31;;;14.46;100.00
27202;BME280;14717;46.924;15.474;2022-10-01T05:33:36;97585.53;;;14.42;100.00
27202;BME280;14717;46.924;15.474;2022-10-01T05:36:04;97598.94;;;14.40;100.00
27202;BME280;14717;46.924;15.474;2022-10-01T05:38:31;97590.94;;;14.47;100.00
27202;BME280;14717;46.924;15.474;2022-10-01T05:41:02;97600.59;;;14.41;100.00
27202;BME280;14717;46.924;15.474;2022-10-01T05:43:28;97594.19;;;14.41;100.00
27202;BME280;14717;46.924;15.474;2022-10-01T05:45:53;97588.16;;;14.47;100.00
27202;BME280;14717;46.924;15.474;2022-10-01T05:48:18;97593.56;;;14.52;100.00
27202;BME280;14717;46.924;15.474;2022-10-01T05:50:44;97584.09;;;14.53;100.00
27202;BME280;14717;46.924;15.474;2022-10-01T05:53:11;97579.34;;;14.53;100.00
27202;BME280;14717;46.924;15.474;2022-10-01T05:55:36;97572.00;;;14.57;100.00
27202;BME280;14717;46.924;15.474;2022-10-01T05:58:04;97579.81;;;14.47;100.00
27202;BME280;14717;46.924;15.474;2022-10-01T06:00:30;97576.22;;;14.38;100.00
27202;BME280;14717;46.924;15.474;2022-10-01T06:02:58;97585.53;;;14.50;100.00
27202;BME280;14717;46.924;15.474;2022-10-01T06:05:25;97581.63;;;14.51;100.00
27202;BME280;14717;46.924;15.474;2022-10-01T06:07:51;97594.81;;;14.38;100.00
27202;BME280;14717;46.924;15.474;2022-10-01T06:10:18;97580.41;;;14.27;100.00
27202;BME280;14717;46.924;15.474;2022-10-01T06:12:44;97577.16;;;14.34;100.00
27202;BME280;14717;46.924;15.474;2022-10-01T06:15:10;97583.53;;;14.34;100.00
27202;BME280;14717;46.924;15.474;2022-10-01T06:17:36;97580.75;;;14.34;100.00
27202;BME280;14717;46.924;15.474;2022-10-01T06:20:08;97573.91;;;14.40;100.00
27202;BME280;14717;46.924;15.474;2022-10-01T06:22:35;97568.03;;;14.33;100.00
27202;BME280;14717;46.924;15.474;2022-10-01T06:25:01;97566.22;;;14.37;100.00
27202;BME280;14717;46.924;15.474;2022-10-01T06:27:26;97565.91;;;14.47;100.00
27202;BME280;14717;46.924;15.474;2022-10-01T06:29:51;97562.00;;;14.56;100.00
27202;BME280;14717;46.924;15.474;2022-10-01T06:32:17;97552.50;;;14.49;100.00
27202;BME280;14717;46.924;15.474;2022-10-01T06:34:44;97548.91;;;14.48;100.00
27202;BME280;14717;46.924;15.474;2022-10-01T06:37:09;97553.28;;;14.24;100.00
27202;BME280;14717;46.924;15.474;2022-10-01T06:39:34;97544.94;;;14.24;100.00
27202;BME280;14717;46.924;15.474;2022-10-01T06:41:59;97554.09;;;14.16;100.00
27202;BME280;14717;46.924;15.474;2022-10-01T06:44:25;97563.25;;;14.17;100.00
27202;BME280;14717;46.924;15.474;2022-10-01T06:46:50;97559.53;;;14.38;100.00
27202;BME280;14717;46.924;15.474;2022-10-01T06:49:16;97554.78;;;14.47;100.00
27202;BME280;14717;46.924;15.474;2022-10-01T06:51:45;97566.75;;;14.56;100.00
27202;BME280;14717;46.924;15.474;2022-10-01T06:54:29;97563.81;;;14.61;100.00
27202;BME280;14717;46.924;15.474;2022-10-01T06:56:54;97565.09;;;14.55;100.00
27202;BME280;14717;46.924;15.474;2022-10-01T06:59:19;97560.03;;;14.57;100.00
27202;BME280;14717;46.924;15.474;2022-10-01T07:01:48;97563.34;;;14.67;100.00
27202;BME280;14717;46.924;15.474;2022-10-01T07:04:13;97560.03;;;14.65;100.00
27202;BME280;14717;46.924;15.474;2022-10-01T07:06:38;97549.38;;;14.42;100.00
27202;BME280;14717;46.924;15.474;2022-10-01T07:09:04;97561.16;;;14.47;100.00
27202;BME280;14717;46.924;15.474;2022-10-01T07:11:29;97565.59;;;14.48;100.00
27202;BME280;14717;46.924;15.474;2022-10-01T07:13:55;97557.25;;;14.57;100.00
27202;BME280;14717;46.924;15.474;2022-10-01T07:16:21;97553.00;;;14.51;100.00
27202;BME280;14717;46.924;15.474;2022-10-01T07:18:47;97554.31;;;14.45;100.00
27202;BME280;14717;46.924;15.474;2022-10-01T07:21:12;97551.84;;;14.44;100.00
27202;BME280;14717;46.924;15.474;2022-10-01T07:23:37;97556.13;;;14.41;100.00
27202;BME280;14717;46.924;15.474;2022-10-01T07:26:04;97549.06;;;14.44;100.00
27202;BME280;14717;46.924;15.474;2022-10-01T07:28:29;97562.50;;;14.58;100.00
27202;BME280;14717;46.924;15.474;2022-10-01T07:30:59;97548.75;;;14.62;100.00
27202;BME280;14717;46.924;15.474;2022-10-01T07:33:25;97561.84;;;14.53;100.00
27202;BME280;14717;46.924;15.474;2022-10-01T07:35:50;97566.28;;;14.62;100.00
27202;BME280;14717;46.924;15.474;2022-10-01T07:38:15;97560.88;;;14.66;100.00
27202;BME280;14717;46.924;15.474;2022-10-01T07:40:41;97566.09;;;14.59;100.00
27202;BME280;14717;46.924;15.474;2022-10-01T07:43:07;97567.09;;;14.54;100.00
27202;BME280;14717;46.924;15.474;2022-10-01T07:45:32;97576.56;;;14.62;100.00
27202;BME280;14717;46.924;15.474;2022-10-01T07:47:59;97561.84;;;14.53;100.00
27202;BME280;14717;46.924;15.474;2022-10-01T07:50:25;97559.56;;;14.55;100.00
27202;BME280;14717;46.924;15.474;2022-10-01T07:52:55;97570.66;;;14.55;100.00
27202;BME280;14717;46.924;15.474;2022-10-01T07:55:24;97584.75;;;14.67;100.00
27202;BME280;14717;46.924;15.474;2022-10-01T07:57:54;97582.81;;;14.76;100.00
27202;BME280;14717;46.924;15.474;2022-10-01T08:00:21;97583.78;;;14.71;100.00
27202;BME280;14717;46.924;15.474;2022-10-01T08:02:51;97586.25;;;14.81;100.00
27202;BME280;14717;46.924;15.474;2022-10-01T08:05:23;97591.47;;;14.83;100.00
27202;BME280;14717;46.924;15.474;2022-10-01T08:07:49;97591.81;;;14.81;100.00
27202;BME280;14717;46.924;15.474;2022-10-01T08:10:15;97593.72;;;14.64;100.00
27202;BME280;14717;46.924;15.474;2022-10-01T08:12:41;97586.38;;;14.59;100.00
27202;BME280;14717;46.924;15.474;2022-10-01T08:15:08;97591.47;;;14.74;100.00
27202;BME280;14717;46.924;15.474;2022-10-01T08:17:34;97590.50;;;14.87;100.00
27202;BME280;14717;46.924;15.474;2022-10-01T08:20:00;97590.50;;;14.95;100.00
27202;BME280;14717;46.924;15.474;2022-10-01T08:22:26;97583.28;;;15.03;100.00
27202;BME280;14717;46.924;15.474;2022-10-01T08:24:52;97575.94;;;15.07;100.00
27202;BME280;14717;46.924;15.474;2022-10-01T08:27:17;97571.03;;;15.04;100.00
27202;BME280;14717;46.924;15.474;2022-10-01T08:29:43;97565.94;;;14.97;100.00
27202;BME280;14717;46.924;15.474;2022-10-01T08:32:08;97565.78;;;15.02;100.00
27202;BME280;14717;46.924;15.474;2022-10-01T08:34:34;97559.72;;;15.09;100.00
27202;BME280;14717;46.924;15.474;2022-10-01T08:37:00;97563.66;;;14.99;100.00
27202;BME280;14717;46.924;15.474;2022-10-01T08:39:25;97558.41;;;15.06;100.00
27202;BME280;14717;46.924;15.474;2022-10-01T08:44:23;97564.81;;;15.32;100.00
27202;BME280;14717;46.924;15.474;2022-10-01T08:46:54;97574.94;;;15.45;100.00
27202;BME280;14717;46.924;15.474;2022-10-01T08:52:02;97570.97;;;15.46;100.00
27202;BME280;14717;46.924;15.474;2022-10-01T08:57:03;97568.06;;;15.34;100.00
27202;BME280;14717;46.924;15.474;2022-10-01T08:59:39;97564.88;;;15.61;100.00
27202;BME280;14717;46.924;15.474;2022-10-01T09:02:17;97567.81;;;15.73;100.00
27202;BME280;14717;46.924;15.474;2022-10-01T09:04:43;97570.25;;;15.82;100.00
27202;BME280;14717;46.924;15.474;2022-10-01T09:07:14;97561.19;;;15.85;100.00
27202;BME280;14717;46.924;15.474;2022-10-01T09:09:48;97569.91;;;15.84;100.00
27202;BME280;14717;46.924;15.474;2022-10-01T09:15:15;97564.81;;;15.86;100.00
27202;BME280;14717;46.924;15.474;2022-10-01T09:18:00;97564.34;;;15.75;100.00
27202;BME280;14717;46.924;15.474;2022-10-01T09:20:35;97562.06;;;15.77;100.00
27202;BME280;14717;46.924;15.474;2022-10-01T09:23:24;97564.50;;;15.79;100.00
27202;BME280;14717;46.924;15.474;2022-10-01T09:25:51;97562.69;;;15.83;100.00
27202;BME280;14717;46.924;15.474;2022-10-01T09:28:21;97557.09;;;15.91;100.00
27202;BME280;14717;46.924;15.474;2022-10-01T09:33:29;97550.47;;;16.04;100.00
27202;BME280;14717;46.924;15.474;2022-10-01T09:36:13;97551.28;;;16.05;100.00
27202;BME280;14717;46.924;15.474;2022-10-01T09:38:43;97542.13;;;16.33;100.00
27202;BME280;14717;46.924;15.474;2022-10-01T09:41:10;97540.00;;;16.59;100.00
27202;BME280;14717;46.924;15.474;2022-10-01T09:43:38;97543.06;;;16.86;100.00
27202;BME280;14717;46.924;15.474;2022-10-01T09:46:06;97546.06;;;17.01;98.08
27202;BME280;14717;46.924;15.474;2022-10-01T09:51:47;97551.81;;;16.84;95.32
27202;BME280;14717;46.924;15.474;2022-10-01T09:54:18;97540.28;;;16.65;97.53
27202;BME280;14717;46.924;15.474;2022-10-01T09:56:52;97543.84;;;16.74;98.00
27202;BME280;14717;46.924;15.474;2022-10-01T09:59:43;97532.53;;;16.91;95.53
27202;BME280;14717;46.924;15.474;2022-10-01T10:02:15;97539.72;;;16.92;96.14
27202;BME280;14717;46.924;15.474;2022-10-01T10:04:44;97529.94;;;16.86;95.38
27202;BME280;14717;46.924;15.474;2022-10-01T10:07:10;97524.25;;;17.15;96.59
27202;BME280;14717;46.924;15.474;2022-10-01T10:09:39;97528.13;;;17.43;95.17
27202;BME280;14717;46.924;15.474;2022-10-01T10:12:06;97531.44;;;17.68;95.95
27202;BME280;14717;46.924;15.474;2022-10-01T10:14:36;97526.56;;;17.65;92.40
27202;BME280;14717;46.924;15.474;2022-10-01T10:17:09;97538.16;;;17.55;91.31
27202;BME280;14717;46.924;15.474;2022-10-01T10:19:36;97521.63;;;17.50;91.63
27202;BME280;14717;46.924;15.474;2022-10-01T10:22:10;97531.38;;;17.45;92.63
27202;BME280;14717;46.924;15.474;2022-10-01T10:24:36;97531.13;;;17.38;93.89
27202;BME280;14717;46.924;15.474;2022-10-01T10:27:05;97538.28;;;17.27;93.64
27202;BME280;14717;46.924;15.474;2022-10-01T10:29:33;97529.50;;;17.16;93.39
27202;BME280;14717;46.924;15.474;2022-10-01T10:32:03;97529.59;;;17.08;94.50
27202;BME280;14717;46.924;15.474;2022-10-01T10:34:38;97525.34;;;17.02;97.03
27202;BME280;14717;46.924;15.474;2022-10-01T10:37:18;97523.78;;;17.13;95.48
27202;BME280;14717;46.924;15.474;2022-10-01T10:39:48;97524.94;;;17.32;93.85
27202;BME280;14717;46.924;15.474;2022-10-01T10:42:15;97531.84;;;17.47;94.13
27202;BME280;14717;46.924;15.474;2022-10-01T10:44:42;97521.66;;;17.62;92.06
27202;BME280;14717;46.924;15.474;2022-10-01T10:47:12;97526.09;;;17.75;90.87
27202;BME280;14717;46.924;15.474;2022-10-01T10:49:44;97518.59;;;17.44;92.26
27202;BME280;14717;46.924;15.474;2022-10-01T10:52:19;97506.63;;;17.23;92.90
27202;BME280;14717;46.924;15.474;2022-10-01T10:54:48;97513.75;;;17.12;93.29
27202;BME280;14717;46.924;15.474;2022-10-01T10:57:29;97509.09;;;17.04;94.26
27202;BME280;14717;46.924;15.474;2022-10-01T11:00:23;97509.22;;;17.28;93.53
27202;BME280;14717;46.924;15.474;2022-10-01T11:02:56;97502.28;;;17.46;91.49
27202;BME280;14717;46.924;15.474;2022-10-01T11:05:27;97507.91;;;17.57;92.83
27202;BME280;14717;46.924;15.474;2022-10-01T11:07:57;97505.19;;;17.37;92.99
27202;BME280;14717;46.924;15.474;2022-10-01T11:13:30;97495.81;;;17.65;91.80
27202;BME280;14717;46.924;15.474;2022-10-01T11:18:55;97482.19;;;17.64;90.75
27202;BME280;14717;46.924;15.474;2022-10-01T11:21:45;97476.41;;;18.16;89.75
27202;BME280;14717;46.924;15.474;2022-10-01T11:30:23;97449.88;;;18.61;86.88
27202;BME280;14717;46.924;15.474;2022-10-01T11:33:09;97457.63;;;18.05;86.56
27202;BME280;14717;46.924;15.474;2022-10-01T11:39:00;97442.97;;;18.08;89.52
27202;BME280;14717;46.924;15.474;2022-10-01T11:41:33;97440.25;;;18.35;89.31
27202;BME280;14717;46.924;15.474;2022-10-01T11:51:58;97414.59;;;18.45;87.77
27202;BME280;14717;46.924;15.474;2022-10-01T11:54:28;97422.06;;;18.41;88.15
27202;BME280;14717;46.924;15.474;2022-10-01T11:56:57;97418.94;;;18.70;85.63
27202;BME280;14717;46.924;15.474;2022-10-01T11:59:47;97422.25;;;18.87;83.74
27202;BME280;14717;46.924;15.474;2022-10-01T12:02:22;97419.88;;;19.01;84.28
27202;BME280;14717;46.924;15.474;2022-10-01T12:04:57;97415.50;;;19.15;83.10
27202;BME280;14717;46.924;15.474;2022-10-01T12:07:37;97420.66;;;19.28;80.66
27202;BME280;14717;46.924;15.474;2022-10-01T12:12:53;97420.59;;;18.98;84.62
27202;BME280;14717;46.924;15.474;2022-10-01T12:15:31;97410.91;;;19.22;82.18
27202;BME280;14717;46.924;15.474;2022-10-01T12:18:12;97421.25;;;19.49;80.47
27202;BME280;14717;46.924;15.474;2022-10-01T12:20:43;97410.94;;;19.53;80.65
27202;BME280;14717;46.924;15.474;2022-10-01T12:23:26;97399.75;;;19.68;79.51
27202;BME280;14717;46.924;15.474;2022-10-01T12:28:56;97394.84;;;19.81;79.56
27202;BME280;14717;46.924;15.474;2022-10-01T12:36:58;97373.41;;;20.38;77.23
27202;BME280;14717;46.924;15.474;2022-10-01T12:50:47;97329.69;;;20.03;77.21
27202;BME280;14717;46.924;15.474;2022-10-01T12:54:03;97341.16;;;20.13;75.90
27202;BME280;14717;46.924;15.474;2022-10-01T12:56:24;97334.88;;;20.19;79.15
27202;BME280;14717;46.924;15.474;2022-10-01T13:01:59;97334.25;;;19.61;80.49
27202;BME280;14717;46.924;15.474;2022-10-01T13:04:57;97332.06;;;19.70;81.83
27202;BME280;14717;46.924;15.474;2022-10-01T13:10:21;97321.25;;;19.84;80.08
27202;BME280;14717;46.924;15.474;2022-10-01T13:15:35;97330.03;;;19.67;80.25
27202;BME280;14717;46.924;15.474;2022-10-01T13:20:52;97319.25;;;19.38;79.72
27202;BME280;14717;46.924;15.474;2022-10-01T13:23:26;97320.63;;;19.29;80.66
27202;BME280;14717;46.924;15.474;2022-10-01T13:26:14;97334.28;;;19.30;81.03
27202;BME280;14717;46.924;15.474;2022-10-01T13:31:36;97329.66;;;19.68;80.65
27202;BME280;14717;46.924;15.474;2022-10-01T13:34:33;97320.81;;;19.51;80.72
27202;BME280;14717;46.924;15.474;2022-10-01T13:37:37;97320.34;;;19.64;80.29
27202;BME280;14717;46.924;15.474;2022-10-01T13:40:28;97312.47;;;19.55;82.78
27202;BME280;14717;46.924;15.474;2022-10-01T13:43:00;97309.84;;;19.62;82.21
27202;BME280;14717;46.924;15.474;2022-10-01T13:48:21;97314.34;;;19.66;80.88
27202;BME280;14717;46.924;15.474;2022-10-01T13:51:06;97319.19;;;19.35;81.01
27202;BME280;14717;46.924;15.474;2022-10-01T13:53:45;97317.38;;;19.42;81.51
27202;BME280;14717;46.924;15.474;2022-10-01T13:56:31;97333.00;;;19.43;83.36
27202;BME280;14717;46.924;15.474;2022-10-01T13:59:02;97334.38;;;19.49;81.75
27202;BME280;14717;46.924;15.474;2022-10-01T14:01:36;97326.94;;;19.57;81.13
27202;BME280;14717;46.924;15.474;2022-10-01T14:04:04;97324.59;;;19.43;82.34
27202;BME280;14717;46.924;15.474;2022-10-01T14:06:40;97325.59;;;19.51;81.82
27202;BME280;14717;46.924;15.474;2022-10-01T14:09:21;97331.09;;;19.63;80.01
27202;BME280;14717;46.924;15.474;2022-10-01T14:12:03;97328.66;;;19.30;82.32
27202;BME280;14717;46.924;15.474;2022-10-01T14:14:57;97319.47;;;19.15;85.13
27202;BME280;14717;46.924;15.474;2022-10-01T14:17:43;97316.75;;;19.03;85.93
27202;BME280;14717;46.924;15.474;2022-10-01T14:20:24;97321.03;;;18.85;87.40
27202;BME280;14717;46.924;15.474;2022-10-01T14:31:15;97315.34;;;18.54;88.79
27202;BME280;14717;46.924;15.474;2022-10-01T14:36:41;97311.38;;;18.55;90.61
27202;BME280;14717;46.924;15.474;2022-10-01T14:41:42;97312.16;;;18.40;90.99
27202;BME280;14717;46.924;15.474;2022-10-01T14:44:36;97307.16;;;18.34;90.67
27202;BME280;14717;46.924;15.474;2022-10-01T14:47:20;97301.22;;;18.35;92.45
27202;BME280;14717;46.924;15.474;2022-10-01T14:49:47;97289.09;;;18.32;92.34
27202;BME280;14717;46.924;15.474;2022-10-01T14:52:28;97299.63;;;18.23;92.77